sensor_id;sensor_type;location;lat;lon;timestamp;pressure;altitude;pressure_sealevel;temperature;humidity
16525;BME280;8375;33.594;-117.718;2023-03-14T00:01:11;100558.25;;;19.58;64.64
16525;BME280;8375;33.594;-117.718;2023-03-14T00:03:42;100548.44;;;19.43;64.81
16525;BME280;8375;33.594;-117.718;2023-03-14T00:06:11;100543.84;;;19.20;65.48
16525;BME280;8375;33.594;-117.718;2023-03-14T00:08:41;100542.75;;;19.07;66.97
16525;BME280;8375;33.594;-117.718;2023-03-14T00:11:11;100556.69;;;18.99;66.78
16525;BME280;8375;33.594;-117.718;2023-03-14T00:13:40;100558.81;;;18.87;67.63
16525;BME280;8375;33.594;-117.718;2023-03-14T00:16:10;100551.41;;;18.82;67.71
16525;BME280;8375;33.594;-117.718;2023-03-14T00:18:41;100548.13;;;18.80;67.29
16525;BME280;8375;33.594;-117.718;2023-03-14T00:21:10;100545.66;;;18.70;67.58
16525;BME280;8375;33.594;-117.718;2023-03-14T00:23:40;100546.59;;;18.53;68.44
16525;BME280;8375;33.594;-117.718;2023-03-14T00:26:10;100550.69;;;18.39;68.58
16525;BME280;8375;33.594;-117.718;2023-03-14T00:28:40;100546.41;;;18.29;69.20
16525;BME280;8375;33.594;-117.718;2023-03-14T00:31:10;100549.81;;;18.22;69.92
16525;BME280;8375;33.594;-117.718;2023-03-14T00:33:41;100552.31;;;17.97;70.58
16525;BME280;8375;33.594;-117.718;2023-03-14T00:36:12;100552.53;;;17.69;71.60
16525;BME280;8375;33.594;-117.718;2023-03-14T00:38:41;100555.63;;;17.64;72.61
16525;BME280;8375;33.594;-117.718;2023-03-14T00:41:12;100555.63;;;17.64;73.36
16525;BME280;8375;33.594;-117.718;2023-03-14T00:43:41;100558.78;;;17.41;73.12
16525;BME280;8375;33.594;-117.718;2023-03-14T00:46:10;100556.28;;;17.40;73.75
16525;BME280;8375;33.594;-117.718;2023-03-14T00:48:41;100556.41;;;17.30;75.24
16525;BME280;8375;33.594;-117.718;2023-03-14T00:51:09;100560.81;;;17.29;75.47
16525;BME280;8375;33.594;-117.718;2023-03-14T00:53:40;100566.16;;;17.20;75.65
16525;BME280;8375;33.594;-117.718;2023-03-14T00:56:11;100565.94;;;17.13;75.30
16525;BME280;8375;33.594;-117.718;2023-03-14T00:58:39;100564.97;;;16.96;74.77
16525;BME280;8375;33.594;-117.718;2023-03-14T01:01:10;100582.72;;;16.84;75.75
16525;BME280;8375;33.594;-117.718;2023-03-14T01:03:40;100579.72;;;16.61;76.51
16525;BME280;8375;33.594;-117.718;2023-03-14T01:06:11;100578.72;;;16.43;77.78
16525;BME280;8375;33.594;-117.718;2023-03-14T01:08:41;100570.91;;;16.34;78.49
16525;BME280;8375;33.594;-117.718;2023-03-14T01:11:11;100576.09;;;16.16;79.51
16525;BME280;8375;33.594;-117.718;2023-03-14T01:13:40;100573.16;;;16.01;80.05
16525;BME280;8375;33.594;-117.718;2023-03-14T01:16:10;100564.22;;;15.93;81.54
16525;BME280;8375;33.594;-117.718;2023-03-14T01:18:42;100571.97;;;15.75;81.68
16525;BME280;8375;33.594;-117.718;2023-03-14T01:21:12;100577.03;;;15.77;83.98
16525;BME280;8375;33.594;-117.718;2023-03-14T01:23:42;100580.97;;;15.53;83.59
16525;BME280;8375;33.594;-117.718;2023-03-14T01:26:10;100580.28;;;15.51;83.43
16525;BME280;8375;33.594;-117.718;2023-03-14T01:28:40;100589.94;;;15.40;85.54
16525;BME280;8375;33.594;-117.718;2023-03-14T01:31:09;100595.31;;;15.29;87.03
16525;BME280;8375;33.594;-117.718;2023-03-14T01:33:40;100588.31;;;15.30;87.14
16525;BME280;8375;33.594;-117.718;2023-03-14T01:36:10;100594.09;;;15.23;87.21
16525;BME280;8375;33.594;-117.718;2023-03-14T01:38:39;100595.19;;;15.01;87.40
16525;BME280;8375;33.594;-117.718;2023-03-14T01:41:12;100602.47;;;15.07;89.48
16525;BME280;8375;33.594;-117.718;2023-03-14T01:43:41;100607.56;;;14.99;88.73
16525;BME280;8375;33.594;-117.718;2023-03-14T01:46:19;100604.00;;;15.00;88.51
16525;BME280;8375;33.594;-117.718;2023-03-14T01:48:57;100602.34;;;14.99;88.60
16525;BME280;8375;33.594;-117.718;2023-03-14T01:51:31;100606.19;;;14.95;90.14
16525;BME280;8375;33.594;-117.718;2023-03-14T01:54:07;100598.78;;;14.90;89.50
16525;BME280;8375;33.594;-117.718;2023-03-14T01:56:37;100594.22;;;14.82;90.43
16525;BME280;8375;33.594;-117.718;2023-03-14T01:59:08;100595.97;;;14.62;90.27
16525;BME280;8375;33.594;-117.718;2023-03-14T02:01:39;100606.13;;;14.65;91.50
16525;BME280;8375;33.594;-117.718;2023-03-14T02:04:12;100597.63;;;14.63;92.59
16525;BME280;8375;33.594;-117.718;2023-03-14T02:06:46;100595.69;;;14.65;92.93
16525;BME280;8375;33.594;-117.718;2023-03-14T02:09:17;100600.06;;;14.55;92.79
16525;BME280;8375;33.594;-117.718;2023-03-14T02:11:45;100601.41;;;14.49;92.94
16525;BME280;8375;33.594;-117.718;2023-03-14T02:14:22;100597.41;;;14.45;93.53
16525;BME280;8375;33.594;-117.718;2023-03-14T02:16:53;100600.56;;;14.39;93.43
16525;BME280;8375;33.594;-117.718;2023-03-14T02:19:29;100605.09;;;14.37;93.28
16525;BME280;8375;33.594;-117.718;2023-03-14T02:22:05;100602.06;;;14.32;93.64
16525;BME280;8375;33.594;-117.718;2023-03-14T02:24:41;100607.69;;;14.27;93.97
16525;BME280;8375;33.594;-117.718;2023-03-14T02:27:15;100610.41;;;14.26;94.78
16525;BME280;8375;33.594;-117.718;2023-03-14T02:29:51;100614.41;;;14.20;94.77
16525;BME280;8375;33.594;-117.718;2023-03-14T02:32:22;100623.31;;;14.17;95.21
16525;BME280;8375;33.594;-117.718;2023-03-14T02:34:54;100633.72;;;14.07;94.40
16525;BME280;8375;33.594;-117.718;2023-03-14T02:37:25;100627.47;;;13.99;95.00
16525;BME280;8375;33.594;-117.718;2023-03-14T02:39:56;100634.31;;;13.90;96.01
16525;BME280;8375;33.594;-117.718;2023-03-14T02:42:27;100643.03;;;13.79;96.66
16525;BME280;8375;33.594;-117.718;2023-03-14T02:44:59;100633.56;;;13.78;97.64
16525;BME280;8375;33.594;-117.718;2023-03-14T02:47:30;100628.59;;;13.75;97.53
16525;BME280;8375;33.594;-117.718;2023-03-14T02:50:06;100630.25;;;13.76;96.97
16525;BME280;8375;33.594;-117.718;2023-03-14T02:52:36;100634.22;;;13.70;97.27
16525;BME280;8375;33.594;-117.718;2023-03-14T02:55:06;100632.66;;;13.68;97.98
16525;BME280;8375;33.594;-117.718;2023-03-14T02:57:36;100621.53;;;13.66;98.67
16525;BME280;8375;33.594;-117.718;2023-03-14T03:00:06;100625.25;;;13.63;98.28
16525;BME280;8375;33.594;-117.718;2023-03-14T03:02:35;100629.06;;;13.59;99.21
16525;BME280;8375;33.594;-117.718;2023-03-14T03:05:04;100632.63;;;13.58;99.60
16525;BME280;8375;33.594;-117.718;2023-03-14T03:07:33;100624.91;;;13.56;100.00
16525;BME280;8375;33.594;-117.718;2023-03-14T03:10:01;100626.00;;;13.54;100.00
16525;BME280;8375;33.594;-117.718;2023-03-14T03:12:30;100632.97;;;13.53;100.00
16525;BME280;8375;33.594;-117.718;2023-03-14T03:15:01;100640.38;;;13.48;100.00
16525;BME280;8375;33.594;-117.718;2023-03-14T03:17:29;100651.50;;;13.50;100.00
16525;BME280;8375;33.594;-117.718;2023-03-14T03:19:58;100651.03;;;13.45;100.00
16525;BME280;8375;33.594;-117.718;2023-03-14T03:22:27;100640.38;;;13.37;100.00
16525;BME280;8375;33.594;-117.718;2023-03-14T03:24:55;100637.06;;;13.34;100.00
16525;BME280;8375;33.594;-117.718;2023-03-14T03:27:24;100648.91;;;13.39;100.00
16525;BME280;8375;33.594;-117.718;2023-03-14T03:29:53;100652.47;;;13.38;100.00
16525;BME280;8375;33.594;-117.718;2023-03-14T03:32:23;100644.91;;;13.34;100.00
16525;BME280;8375;33.594;-117.718;2023-03-14T03:34:52;100653.97;;;13.19;100.00
16525;BME280;8375;33.594;-117.718;2023-03-14T03:37:20;100656.59;;;13.08;100.00
16525;BME280;8375;33.594;-117.718;2023-03-14T03:39:50;100654.34;;;13.03;100.00
16525;BME280;8375;33.594;-117.718;2023-03-14T03:42:19;100662.53;;;13.10;100.00
16525;BME280;8375;33.594;-117.718;2023-03-14T03:44:48;100660.81;;;13.20;100.00
16525;BME280;8375;33.594;-117.718;2023-03-14T03:47:16;100663.69;;;13.17;100.00
16525;BME280;8375;33.594;-117.718;2023-03-14T03:49:47;100664.75;;;13.14;100.00
16525;BME280;8375;33.594;-117.718;2023-03-14T03:52:15;100666.03;;;13.20;100.00
16525;BME280;8375;33.594;-117.718;2023-03-14T03:54:44;100668.75;;;13.18;100.00
16525;BME280;8375;33.594;-117.718;2023-03-14T03:57:13;100666.53;;;13.14;100.00
16525;BME280;8375;33.594;-117.718;2023-03-14T03:59:41;100666.66;;;13.12;100.00
16525;BME280;8375;33.594;-117.718;2023-03-14T04:02:10;100680.38;;;13.14;100.00
16525;BME280;8375;33.594;-117.718;2023-03-14T04:04:39;100676.00;;;13.15;100.00
16525;BME280;8375;33.594;-117.718;2023-03-14T04:07:09;100680.78;;;13.10;100.00
16525;BME280;8375;33.594;-117.718;2023-03-14T04:09:40;100680.78;;;13.10;100.00
16525;BME280;8375;33.594;-117.718;2023-03-14T04:12:09;100685.59;;;13.14;100.00
16525;BME280;8375;33.594;-117.718;2023-03-14T04:14:37;100689.38;;;13.21;100.00
16525;BME280;8375;33.594;-117.718;2023-03-14T04:17:07;100691.16;;;13.21;100.00
16525;BME280;8375;33.594;-117.718;2023-03-14T04:19:36;100703.28;;;13.11;100.00
16525;BME280;8375;33.594;-117.718;2023-03-14T04:22:04;100702.44;;;13.10;100.00
16525;BME280;8375;33.594;-117.718;2023-03-14T04:24:35;100702.88;;;13.15;100.00
16525;BME280;8375;33.594;-117.718;2023-03-14T04:27:04;100707.75;;;13.20;100.00
16525;BME280;8375;33.594;-117.718;2023-03-14T04:29:32;100711.78;;;13.24;100.00
16525;BME280;8375;33.594;-117.718;2023-03-14T04:32:01;100714.88;;;13.18;100.00
16525;BME280;8375;33.594;-117.718;2023-03-14T04:34:30;100724.13;;;13.11;100.00
16525;BME280;8375;33.594;-117.718;2023-03-14T04:36:59;100715.84;;;13.05;100.00
16525;BME280;8375;33.594;-117.718;2023-03-14T04:39:28;100724.38;;;13.08;100.00
16525;BME280;8375;33.594;-117.718;2023-03-14T04:41:58;100726.84;;;13.09;100.00
16525;BME280;8375;33.594;-117.718;2023-03-14T04:44:27;100739.53;;;13.14;100.00
16525;BME280;8375;33.594;-117.718;2023-03-14T04:46:56;100740.22;;;13.16;100.00
16525;BME280;8375;33.594;-117.718;2023-03-14T04:49:24;100737.97;;;13.11;100.00
16525;BME280;8375;33.594;-117.718;2023-03-14T04:51:53;100740.81;;;13.08;100.00
16525;BME280;8375;33.594;-117.718;2023-03-14T04:54:22;100739.31;;;13.05;100.00
16525;BME280;8375;33.594;-117.718;2023-03-14T04:56:50;100737.63;;;13.04;100.00
16525;BME280;8375;33.594;-117.718;2023-03-14T04:59:21;100739.16;;;13.07;100.00
16525;BME280;8375;33.594;-117.718;2023-03-14T05:01:49;100733.38;;;13.03;100.00
16525;BME280;8375;33.594;-117.718;2023-03-14T05:04:18;100732.22;;;12.96;100.00
16525;BME280;8375;33.594;-117.718;2023-03-14T05:06:47;100735.88;;;12.94;100.00
16525;BME280;8375;33.594;-117.718;2023-03-14T05:09:15;100733.03;;;12.85;100.00
16525;BME280;8375;33.594;-117.718;2023-03-14T05:11:44;100727.97;;;12.72;100.00
16525;BME280;8375;33.594;-117.718;2023-03-14T05:14:13;100731.28;;;12.63;100.00
16525;BME280;8375;33.594;-117.718;2023-03-14T05:16:43;100723.00;;;12.58;100.00
16525;BME280;8375;33.594;-117.718;2023-03-14T05:19:12;100729.16;;;12.57;100.00
16525;BME280;8375;33.594;-117.718;2023-03-14T05:21:40;100724.75;;;12.57;100.00
16525;BME280;8375;33.594;-117.718;2023-03-14T05:24:09;100720.88;;;12.63;100.00
16525;BME280;8375;33.594;-117.718;2023-03-14T05:26:38;100726.66;;;12.67;100.00
16525;BME280;8375;33.594;-117.718;2023-03-14T05:29:07;100720.25;;;12.59;100.00
16525;BME280;8375;33.594;-117.718;2023-03-14T05:31:36;100728.31;;;12.68;100.00
16525;BME280;8375;33.594;-117.718;2023-03-14T05:34:06;100732.47;;;12.70;100.00
16525;BME280;8375;33.594;-117.718;2023-03-14T05:36:35;100734.94;;;12.72;100.00
16525;BME280;8375;33.594;-117.718;2023-03-14T05:39:04;100733.41;;;12.69;100.00
16525;BME280;8375;33.594;-117.718;2023-03-14T05:41:33;100736.00;;;12.58;100.00
16525;BME280;8375;33.594;-117.718;2023-03-14T05:44:02;100729.50;;;12.52;100.00
16525;BME280;8375;33.594;-117.718;2023-03-14T05:46:31;100730.19;;;12.43;100.00
16525;BME280;8375;33.594;-117.718;2023-03-14T05:49:00;100731.84;;;12.44;100.00
16525;BME280;8375;33.594;-117.718;2023-03-14T05:51:30;100729.00;;;12.47;100.00
16525;BME280;8375;33.594;-117.718;2023-03-14T05:53:59;100722.03;;;12.47;100.00
16525;BME280;8375;33.594;-117.718;2023-03-14T05:56:28;100728.69;;;12.52;100.00
16525;BME280;8375;33.594;-117.718;2023-03-14T05:58:57;100724.19;;;12.54;100.00
16525;BME280;8375;33.594;-117.718;2023-03-14T06:01:28;100727.25;;;12.47;100.00
16525;BME280;8375;33.594;-117.718;2023-03-14T06:03:57;100721.69;;;12.52;100.00
16525;BME280;8375;33.594;-117.718;2023-03-14T06:06:25;100719.22;;;12.51;100.00
16525;BME280;8375;33.594;-117.718;2023-03-14T06:08:56;100719.06;;;12.52;100.00
16525;BME280;8375;33.594;-117.718;2023-03-14T06:11:24;100711.63;;;12.47;100.00
16525;BME280;8375;33.594;-117.718;2023-03-14T06:13:53;100709.50;;;12.53;100.00
16525;BME280;8375;33.594;-117.718;2023-03-14T06:16:22;100713.38;;;12.58;100.00
16525;BME280;8375;33.594;-117.718;2023-03-14T06:18:50;100709.97;;;12.58;100.00
16525;BME280;8375;33.594;-117.718;2023-03-14T06:21:19;100714.00;;;12.62;100.00
16525;BME280;8375;33.594;-117.718;2023-03-14T06:23:48;100711.25;;;12.64;100.00
16525;BME280;8375;33.594;-117.718;2023-03-14T06:26:18;100709.38;;;12.66;100.00
16525;BME280;8375;33.594;-117.718;2023-03-14T06:28:48;100707.84;;;12.63;100.00
16525;BME280;8375;33.594;-117.718;2023-03-14T06:31:17;100705.00;;;12.55;100.00
16525;BME280;8375;33.594;-117.718;2023-03-14T06:33:46;100705.47;;;12.49;100.00
16525;BME280;8375;33.594;-117.718;2023-03-14T06:36:14;100705.81;;;12.44;100.00
16525;BME280;8375;33.594;-117.718;2023-03-14T06:38:43;100699.56;;;12.35;100.00
16525;BME280;8375;33.594;-117.718;2023-03-14T06:41:12;100700.97;;;12.28;100.00
16525;BME280;8375;33.594;-117.718;2023-03-14T06:43:43;100698.34;;;12.16;100.00
16525;BME280;8375;33.594;-117.718;2023-03-14T06:46:12;100702.47;;;12.19;100.00
16525;BME280;8375;33.594;-117.718;2023-03-14T06:48:41;100689.22;;;12.11;100.00
16525;BME280;8375;33.594;-117.718;2023-03-14T06:51:10;100682.97;;;12.13;100.00
16525;BME280;8375;33.594;-117.718;2023-03-14T06:53:39;100666.41;;;12.03;100.00
16525;BME280;8375;33.594;-117.718;2023-03-14T06:56:08;100662.34;;;11.99;100.00
16525;BME280;8375;33.594;-117.718;2023-03-14T06:58:37;100657.59;;;11.93;100.00
16525;BME280;8375;33.594;-117.718;2023-03-14T07:01:17;100659.22;;;11.82;100.00
16525;BME280;8375;33.594;-117.718;2023-03-14T07:03:48;100659.31;;;11.81;100.00
16525;BME280;8375;33.594;-117.718;2023-03-14T07:06:18;100659.94;;;11.84;100.00
16525;BME280;8375;33.594;-117.718;2023-03-14T07:08:46;100654.03;;;11.82;100.00
16525;BME280;8375;33.594;-117.718;2023-03-14T07:11:15;100660.63;;;11.75;100.00
16525;BME280;8375;33.594;-117.718;2023-03-14T07:13:47;100656.34;;;11.63;100.00
16525;BME280;8375;33.594;-117.718;2023-03-14T07:16:18;100652.91;;;11.62;100.00
16525;BME280;8375;33.594;-117.718;2023-03-14T07:18:46;100649.22;;;11.53;100.00
16525;BME280;8375;33.594;-117.718;2023-03-14T07:21:15;100650.13;;;11.41;100.00
16525;BME280;8375;33.594;-117.718;2023-03-14T07:23:44;100651.06;;;11.40;100.00
16525;BME280;8375;33.594;-117.718;2023-03-14T07:26:12;100652.38;;;11.45;100.00
16525;BME280;8375;33.594;-117.718;2023-03-14T07:28:41;100636.44;;;11.50;100.00
16525;BME280;8375;33.594;-117.718;2023-03-14T07:31:10;100641.66;;;11.50;100.00
16525;BME280;8375;33.594;-117.718;2023-03-14T07:33:41;100639.50;;;11.44;100.00
16525;BME280;8375;33.594;-117.718;2023-03-14T07:36:10;100638.28;;;11.37;100.00
16525;BME280;8375;33.594;-117.718;2023-03-14T07:38:38;100639.56;;;11.31;100.00
16525;BME280;8375;33.594;-117.718;2023-03-14T07:41:07;100640.41;;;11.32;100.00
16525;BME280;8375;33.594;-117.718;2023-03-14T07:43:36;100634.31;;;11.44;100.00
16525;BME280;8375;33.594;-117.718;2023-03-14T07:46:05;100642.59;;;11.49;100.00
16525;BME280;8375;33.594;-117.718;2023-03-14T07:48:34;100635.59;;;11.50;100.00
16525;BME280;8375;33.594;-117.718;2023-03-14T07:51:04;100647.06;;;11.47;100.00
16525;BME280;8375;33.594;-117.718;2023-03-14T07:53:33;100644.31;;;11.37;100.00
16525;BME280;8375;33.594;-117.718;2023-03-14T07:56:02;100642.66;;;11.36;100.00
16525;BME280;8375;33.594;-117.718;2023-03-14T07:58:31;100649.94;;;11.31;100.00
16525;BME280;8375;33.594;-117.718;2023-03-14T08:00:59;100646.09;;;11.37;100.00
16525;BME280;8375;33.594;-117.718;2023-03-14T08:03:28;100635.34;;;11.41;100.00
16525;BME280;8375;33.594;-117.718;2023-03-14T08:05:56;100627.94;;;11.48;100.00
16525;BME280;8375;33.594;-117.718;2023-03-14T08:08:27;100630.53;;;11.48;100.00
16525;BME280;8375;33.594;-117.718;2023-03-14T08:10:55;100633.84;;;11.50;100.00
16525;BME280;8375;33.594;-117.718;2023-03-14T08:13:25;100625.59;;;11.56;100.00
16525;BME280;8375;33.594;-117.718;2023-03-14T08:15:53;100627.59;;;11.64;100.00
16525;BME280;8375;33.594;-117.718;2023-03-14T08:18:22;100629.75;;;11.70;100.00
16525;BME280;8375;33.594;-117.718;2023-03-14T08:20:51;100634.63;;;11.75;100.00
16525;BME280;8375;33.594;-117.718;2023-03-14T08:23:19;100645.75;;;11.77;100.00
16525;BME280;8375;33.594;-117.718;2023-03-14T08:25:50;100655.56;;;11.85;100.00
16525;BME280;8375;33.594;-117.718;2023-03-14T08:28:19;100649.78;;;11.81;100.00
16525;BME280;8375;33.594;-117.718;2023-03-14T08:30:48;100653.34;;;11.92;100.00
16525;BME280;8375;33.594;-117.718;2023-03-14T08:33:16;100653.56;;;11.88;100.00
16525;BME280;8375;33.594;-117.718;2023-03-14T08:35:45;100647.53;;;11.88;100.00
16525;BME280;8375;33.594;-117.718;2023-03-14T08:38:14;100646.34;;;11.92;100.00
16525;BME280;8375;33.594;-117.718;2023-03-14T08:40:43;100650.03;;;11.89;100.00
16525;BME280;8375;33.594;-117.718;2023-03-14T08:43:13;100647.28;;;11.91;100.00
16525;BME280;8375;33.594;-117.718;2023-03-14T08:45:42;100649.19;;;11.89;100.00
16525;BME280;8375;33.594;-117.718;2023-03-14T08:48:11;100641.50;;;11.87;100.00
16525;BME280;8375;33.594;-117.718;2023-03-14T08:50:39;100638.06;;;11.87;100.00
16525;BME280;8375;33.594;-117.718;2023-03-14T08:53:08;100640.19;;;11.93;100.00
16525;BME280;8375;33.594;-117.718;2023-03-14T08:55:37;100632.28;;;11.95;100.00
16525;BME280;8375;33.594;-117.718;2023-03-14T08:58:05;100627.19;;;11.93;100.00
16525;BME280;8375;33.594;-117.718;2023-03-14T09:00:36;100619.84;;;11.87;100.00
16525;BME280;8375;33.594;-117.718;2023-03-14T09:03:04;100623.75;;;11.81;100.00
16525;BME280;8375;33.594;-117.718;2023-03-14T09:05:33;100622.56;;;11.74;100.00
16525;BME280;8375;33.594;-117.718;2023-03-14T09:08:02;100619.97;;;11.74;100.00
16525;BME280;8375;33.594;-117.718;2023-03-14T09:10:31;100611.31;;;11.73;100.00
16525;BME280;8375;33.594;-117.718;2023-03-14T09:12:59;100612.72;;;11.66;100.00
16525;BME280;8375;33.594;-117.718;2023-03-14T09:15:28;100605.06;;;11.65;100.00
16525;BME280;8375;33.594;-117.718;2023-03-14T09:17:58;100603.38;;;11.64;100.00
16525;BME280;8375;33.594;-117.718;2023-03-14T09:20:27;100586.59;;;11.56;100.00
16525;BME280;8375;33.594;-117.718;2023-03-14T09:22:56;100590.13;;;11.55;100.00
16525;BME280;8375;33.594;-117.718;2023-03-14T09:25:24;100585.28;;;11.62;100.00
16525;BME280;8375;33.594;-117.718;2023-03-14T09:27:53;100576.78;;;11.60;100.00
16525;BME280;8375;33.594;-117.718;2023-03-14T09:30:22;100577.63;;;11.61;100.00
16525;BME280;8375;33.594;-117.718;2023-03-14T09:32:50;100578.19;;;11.64;100.00
16525;BME280;8375;33.594;-117.718;2023-03-14T09:35:21;100572.78;;;11.67;100.00
16525;BME280;8375;33.594;-117.718;2023-03-14T09:37:49;100576.06;;;11.58;100.00
16525;BME280;8375;33.594;-117.718;2023-03-14T09:40:19;100562.72;;;11.51;100.00
16525;BME280;8375;33.594;-117.718;2023-03-14T09:42:52;100560.31;;;11.37;100.00
16525;BME280;8375;33.594;-117.718;2023-03-14T09:45:26;100557.50;;;11.40;100.00
16525;BME280;8375;33.594;-117.718;2023-03-14T09:47:56;100552.13;;;11.30;100.00
16525;BME280;8375;33.594;-117.718;2023-03-14T09:50:32;100562.66;;;11.28;100.00
16525;BME280;8375;33.594;-117.718;2023-03-14T09:53:09;100567.41;;;11.35;100.00
16525;BME280;8375;33.594;-117.718;2023-03-14T09:55:39;100569.41;;;11.42;100.00
16525;BME280;8375;33.594;-117.718;2023-03-14T09:58:11;100562.00;;;11.49;100.00
16525;BME280;8375;33.594;-117.718;2023-03-14T10:00:40;100561.41;;;11.57;100.00
16525;BME280;8375;33.594;-117.718;2023-03-14T10:03:26;100558.25;;;11.65;100.00
16525;BME280;8375;33.594;-117.718;2023-03-14T10:05:57;100560.38;;;11.71;100.00
16525;BME280;8375;33.594;-117.718;2023-03-14T10:08:27;100552.34;;;11.74;100.00
16525;BME280;8375;33.594;-117.718;2023-03-14T10:10:55;100524.44;;;11.76;100.00
16525;BME280;8375;33.594;-117.718;2023-03-14T10:13:27;100516.75;;;11.74;100.00
16525;BME280;8375;33.594;-117.718;2023-03-14T10:15:58;100513.56;;;11.71;100.00
16525;BME280;8375;33.594;-117.718;2023-03-14T10:18:28;100505.63;;;11.61;100.00
16525;BME280;8375;33.594;-117.718;2023-03-14T10:21:09;100501.13;;;11.52;100.00
16525;BME280;8375;33.594;-117.718;2023-03-14T10:23:45;100495.34;;;11.48;100.00
16525;BME280;8375;33.594;-117.718;2023-03-14T10:26:15;100472.19;;;11.45;100.00
16525;BME280;8375;33.594;-117.718;2023-03-14T10:28:44;100467.81;;;11.45;100.00
16525;BME280;8375;33.594;-117.718;2023-03-14T10:31:14;100469.22;;;11.50;100.00
16525;BME280;8375;33.594;-117.718;2023-03-14T10:33:56;100461.19;;;11.53;100.00
16525;BME280;8375;33.594;-117.718;2023-03-14T10:36:27;100445.81;;;11.50;100.00
16525;BME280;8375;33.594;-117.718;2023-03-14T10:39:14;100432.34;;;11.44;100.00
16525;BME280;8375;33.594;-117.718;2023-03-14T10:41:47;100423.50;;;11.47;100.00
16525;BME280;8375;33.594;-117.718;2023-03-14T10:44:19;100420.19;;;11.45;100.00
16525;BME280;8375;33.594;-117.718;2023-03-14T10:46:56;100407.06;;;11.47;100.00
16525;BME280;8375;33.594;-117.718;2023-03-14T10:49:28;100410.63;;;11.45;100.00
16525;BME280;8375;33.594;-117.718;2023-03-14T10:52:01;100418.06;;;11.50;100.00
16525;BME280;8375;33.594;-117.718;2023-03-14T10:54:31;100414.06;;;11.57;100.00
16525;BME280;8375;33.594;-117.718;2023-03-14T10:57:00;100426.56;;;11.64;100.00
16525;BME280;8375;33.594;-117.718;2023-03-14T10:59:35;100429.88;;;11.66;100.00
16525;BME280;8375;33.594;-117.718;2023-03-14T11:02:10;100441.22;;;11.65;100.00
16525;BME280;8375;33.594;-117.718;2023-03-14T11:04:55;100433.66;;;11.62;100.00
16525;BME280;8375;33.594;-117.718;2023-03-14T11:07:35;100442.41;;;11.61;100.00
16525;BME280;8375;33.594;-117.718;2023-03-14T11:10:13;100439.09;;;11.58;100.00
16525;BME280;8375;33.594;-117.718;2023-03-14T11:12:52;100445.00;;;11.61;100.00
16525;BME280;8375;33.594;-117.718;2023-03-14T11:15:32;100449.25;;;11.62;100.00
16525;BME280;8375;33.594;-117.718;2023-03-14T11:18:30;100446.44;;;11.65;100.00
16525;BME280;8375;33.594;-117.718;2023-03-14T11:21:06;100445.47;;;11.66;100.00
16525;BME280;8375;33.594;-117.718;2023-03-14T11:23:44;100444.78;;;11.64;100.00
16525;BME280;8375;33.594;-117.718;2023-03-14T11:26:26;100435.56;;;11.59;100.00
16525;BME280;8375;33.594;-117.718;2023-03-14T11:28:58;100433.06;;;11.58;100.00
16525;BME280;8375;33.594;-117.718;2023-03-14T11:31:33;100438.16;;;11.59;100.00
16525;BME280;8375;33.594;-117.718;2023-03-14T11:34:10;100442.19;;;11.64;100.00
16525;BME280;8375;33.594;-117.718;2023-03-14T11:36:46;100436.38;;;11.60;100.00
16525;BME280;8375;33.594;-117.718;2023-03-14T11:39:19;100439.69;;;11.62;100.00
16525;BME280;8375;33.594;-117.718;2023-03-14T11:41:50;100461.31;;;11.63;100.00
16525;BME280;8375;33.594;-117.718;2023-03-14T11:44:22;100457.78;;;11.64;100.00
16525;BME280;8375;33.594;-117.718;2023-03-14T11:46:57;100464.03;;;11.61;100.00
16525;BME280;8375;33.594;-117.718;2023-03-14T11:49:33;100458.59;;;11.64;100.00
16525;BME280;8375;33.594;-117.718;2023-03-14T11:52:08;100463.94;;;11.63;100.00
16525;BME280;8375;33.594;-117.718;2023-03-14T11:54:44;100458.50;;;11.54;100.00
16525;BME280;8375;33.594;-117.718;2023-03-14T11:57:17;100467.81;;;11.45;100.00
16525;BME280;8375;33.594;-117.718;2023-03-14T11:59:51;100464.63;;;11.53;100.00
16525;BME280;8375;33.594;-117.718;2023-03-14T12:02:33;100464.72;;;11.52;100.00
16525;BME280;8375;33.594;-117.718;2023-03-14T12:05:30;100454.34;;;11.52;100.00
16525;BME280;8375;33.594;-117.718;2023-03-14T12:08:28;100443.47;;;11.58;100.00
16525;BME280;8375;33.594;-117.718;2023-03-14T12:11:04;100437.06;;;11.62;100.00
16525;BME280;8375;33.594;-117.718;2023-03-14T12:13:38;100428.22;;;11.53;100.00
16525;BME280;8375;33.594;-117.718;2023-03-14T12:16:34;100426.59;;;11.41;100.00
16525;BME280;8375;33.594;-117.718;2023-03-14T12:19:33;100438.41;;;11.45;100.00
16525;BME280;8375;33.594;-117.718;2023-03-14T12:22:30;100438.41;;;11.45;100.00
16525;BME280;8375;33.594;-117.718;2023-03-14T12:25:12;100435.66;;;11.47;100.00
16525;BME280;8375;33.594;-117.718;2023-03-14T12:30:38;100429.41;;;11.49;100.00
16525;BME280;8375;33.594;-117.718;2023-03-14T12:33:29;100439.69;;;11.51;100.00
16525;BME280;8375;33.594;-117.718;2023-03-14T12:38:48;100439.91;;;11.48;100.00
16525;BME280;8375;33.594;-117.718;2023-03-14T12:41:23;100444.53;;;11.44;100.00
16525;BME280;8375;33.594;-117.718;2023-03-14T12:43:55;100456.81;;;11.42;100.00
16525;BME280;8375;33.594;-117.718;2023-03-14T12:46:25;100451.03;;;11.38;100.00
16525;BME280;8375;33.594;-117.718;2023-03-14T12:48:57;100463.91;;;11.40;100.00